createdAt,value
2023-02-24T00:02:05.714Z,4.68
2023-02-24T00:04:35.688Z,4.95
2023-02-24T00:07:03.048Z,4.70
2023-02-24T00:09:31.629Z,5.55
2023-02-24T00:12:04.698Z,4.43
2023-02-24T00:14:34.924Z,4.70
2023-02-24T00:17:02.396Z,3.78
2023-02-24T00:19:34.318Z,4.65
2023-02-24T00:22:03.453Z,4.38
2023-02-24T00:24:30.894Z,4.78
2023-02-24T00:27:00.527Z,5.97
2023-02-24T00:29:29.483Z,5.57
2023-02-24T00:32:00.246Z,4.75
2023-02-24T00:34:31.560Z,5.80
2023-02-24T00:36:59.202Z,5.53
2023-02-24T00:39:34.610Z,5.32
2023-02-24T00:42:06.281Z,5.20
2023-02-24T00:44:45.779Z,4.70
2023-02-24T00:47:16.506Z,5.47
2023-02-24T00:49:43.846Z,5.93
2023-02-24T00:52:16.035Z,5.10
2023-02-24T00:54:44.708Z,4.50
2023-02-24T00:57:12.357Z,4.50
2023-02-24T00:59:39.557Z,5.05
2023-02-24T01:02:07.675Z,4.57
2023-02-24T01:04:37.422Z,4.18
2023-02-24T01:07:10.858Z,4.22
2023-02-24T01:09:41.430Z,5.28
2023-02-24T01:12:22.446Z,3.72
2023-02-24T01:14:51.931Z,3.92
2023-02-24T01:17:20.130Z,4.43
2023-02-24T01:19:50.143Z,4.15
2023-02-24T01:22:19.580Z,4.10
2023-02-24T01:24:47.740Z,3.30
2023-02-24T01:27:19.956Z,3.33
2023-02-24T01:29:48.226Z,4.03
2023-02-24T01:32:20.940Z,3.63
2023-02-24T01:34:51.509Z,3.05
2023-02-24T01:37:19.547Z,3.30
2023-02-24T01:39:47.831Z,3.28
2023-02-24T01:42:17.080Z,3.65
2023-02-24T01:44:47.972Z,3.50
2023-02-24T01:47:18.586Z,3.27
2023-02-24T01:49:49.185Z,3.58
2023-02-24T01:52:28.120Z,3.40
2023-02-24T01:55:28.916Z,4.00
2023-02-24T01:57:58.043Z,3.20
2023-02-24T02:00:33.702Z,3.28
2023-02-24T02:03:05.074Z,3.00
2023-02-24T02:05:31.963Z,3.40
2023-02-24T02:08:00.431Z,2.70
2023-02-24T02:10:28.898Z,3.22
2023-02-24T02:12:56.474Z,3.00
2023-02-24T02:15:24.360Z,3.35
2023-02-24T02:18:06.772Z,3.25
2023-02-24T02:23:35.836Z,2.72
2023-02-24T02:26:53.651Z,4.20
2023-02-24T02:29:42.434Z,3.50
2023-02-24T02:32:31.481Z,3.25
2023-02-24T02:35:19.096Z,3.75
2023-02-24T02:37:56.292Z,2.88
2023-02-24T02:40:29.014Z,2.42
2023-02-24T02:43:46.421Z,2.53
2023-02-24T02:46:17.736Z,3.33
2023-02-24T02:48:53.300Z,3.70
2023-02-24T02:51:29.655Z,3.63
2023-02-24T02:54:01.841Z,3.53
2023-02-24T02:56:33.980Z,3.38
2023-02-24T03:01:33.910Z,3.85
2023-02-24T03:04:05.992Z,4.05
2023-02-24T03:06:47.788Z,3.35
2023-02-24T03:09:22.735Z,4.03
2023-02-24T03:11:55.586Z,3.50
2023-02-24T03:14:28.380Z,3.40
2023-02-24T03:16:56.971Z,3.10
2023-02-24T03:19:32.131Z,4.05
2023-02-24T03:22:07.060Z,3.75
2023-02-24T03:24:38.822Z,3.60
2023-02-24T03:27:39.792Z,4.55
2023-02-24T03:30:40.792Z,4.25
2023-02-24T03:33:21.500Z,3.58
2023-02-24T03:35:51.506Z,3.65
2023-02-24T03:38:20.006Z,3.33
2023-02-24T03:40:47.461Z,3.78
2023-02-24T03:43:33.806Z,3.53
2023-02-24T03:46:02.485Z,3.35
2023-02-24T03:48:30.523Z,3.25
2023-02-24T03:50:59.485Z,3.75
2023-02-24T03:54:12.488Z,3.10
2023-02-24T03:57:15.235Z,4.00
2023-02-24T04:00:22.888Z,3.85
2023-02-24T04:03:06.086Z,3.13
2023-02-24T04:05:47.380Z,3.80
2023-02-24T04:08:16.944Z,3.67
2023-02-24T04:10:57.431Z,2.88
2023-02-24T04:13:47.356Z,2.90
2023-02-24T04:16:30.102Z,3.13
2023-02-24T04:19:05.457Z,3.35
2023-02-24T04:21:37.620Z,3.15
2023-02-24T04:24:11.429Z,2.88
2023-02-24T04:26:40.482Z,3.38
2023-02-24T04:29:09.793Z,2.58
2023-02-24T04:31:39.082Z,3.63
2023-02-24T04:34:09.401Z,3.53
2023-02-24T04:36:38.781Z,3.03
2023-02-24T04:39:07.604Z,2.80
2023-02-24T04:41:35.748Z,3.03
2023-02-24T04:44:02.666Z,3.03
2023-02-24T04:46:32.335Z,3.15
2023-02-24T04:49:02.095Z,2.95
2023-02-24T04:51:31.875Z,2.95
2023-02-24T04:53:58.761Z,2.80
2023-02-24T04:56:25.671Z,2.80
2023-02-24T04:58:52.551Z,3.67
2023-02-24T05:01:19.702Z,3.15
2023-02-24T05:03:47.664Z,2.70
2023-02-24T05:06:17.156Z,2.83
2023-02-24T05:08:44.173Z,3.38
2023-02-24T05:11:19.370Z,2.38
2023-02-24T05:13:46.953Z,2.65
2023-02-24T05:16:17.665Z,2.47
2023-02-24T05:18:44.875Z,2.95
2023-02-24T05:21:35.900Z,2.40
2023-02-24T05:24:07.072Z,2.85
2023-02-24T05:26:41.574Z,2.43
2023-02-24T05:29:09.367Z,2.40
2023-02-24T05:31:37.297Z,2.50
2023-02-24T05:34:07.753Z,2.55
2023-02-24T05:36:39.433Z,3.08
2023-02-24T05:39:12.252Z,3.10
2023-02-24T05:41:42.087Z,2.65
2023-02-24T05:44:13.229Z,3.17
2023-02-24T05:46:42.905Z,3.80
2023-02-24T05:49:16.378Z,3.10
2023-02-24T05:51:54.359Z,2.47
2023-02-24T05:54:25.755Z,2.58
2023-02-24T05:56:52.657Z,2.25
2023-02-24T05:59:21.554Z,2.63
2023-02-24T06:01:53.184Z,2.35
2023-02-24T06:04:39.227Z,2.72
2023-02-24T06:07:24.966Z,2.80
2023-02-24T06:09:57.750Z,2.75
2023-02-24T06:12:28.164Z,2.33
2023-02-24T06:14:55.647Z,3.15
2023-02-24T06:17:23.019Z,2.67
2023-02-24T06:19:52.662Z,2.58
2023-02-24T06:22:22.843Z,3.47
2023-02-24T06:24:50.532Z,2.70
2023-02-24T06:27:19.636Z,2.83
2023-02-24T06:29:50.452Z,3.22
2023-02-24T06:32:19.420Z,2.65
2023-02-24T06:34:46.318Z,2.70
2023-02-24T06:37:14.977Z,2.50
2023-02-24T06:39:43.289Z,3.05
2023-02-24T06:42:11.952Z,1.95
2023-02-24T06:44:40.973Z,2.78
2023-02-24T06:47:10.991Z,2.10
2023-02-24T06:49:37.919Z,2.78
2023-02-24T06:52:05.926Z,3.08
2023-02-24T06:54:35.943Z,2.28
2023-02-24T06:57:03.751Z,2.53
2023-02-24T06:59:32.257Z,1.88
2023-02-24T07:02:01.985Z,2.30
2023-02-24T07:04:29.637Z,2.35
2023-02-24T07:07:03.507Z,2.70
2023-02-24T07:09:32.109Z,2.20
2023-02-24T07:12:02.658Z,2.28
2023-02-24T07:14:32.914Z,2.45
2023-02-24T07:17:00.348Z,2.30
2023-02-24T07:19:32.373Z,2.03
2023-02-24T07:22:02.140Z,2.58
2023-02-24T07:24:39.162Z,2.10
2023-02-24T07:27:21.686Z,2.83
2023-02-24T07:32:22.366Z,1.92
2023-02-24T07:34:49.277Z,2.85
2023-02-24T07:37:16.795Z,1.85
2023-02-24T07:39:43.838Z,2.10
2023-02-24T07:42:15.067Z,1.85
2023-02-24T07:44:46.698Z,2.60
2023-02-24T07:47:15.894Z,1.60
2023-02-24T07:49:43.169Z,1.83
2023-02-24T07:52:11.605Z,2.53
2023-02-24T07:54:39.223Z,1.67
2023-02-24T07:57:06.604Z,2.55
2023-02-24T07:59:38.093Z,3.00
2023-02-24T08:02:07.760Z,2.08
2023-02-24T08:04:36.388Z,2.47
2023-02-24T08:07:04.302Z,2.38
2023-02-24T08:09:45.903Z,2.03
2023-02-24T08:12:18.041Z,2.00
2023-02-24T08:17:23.747Z,2.03
2023-02-24T08:20:12.314Z,1.85
2023-02-24T08:22:43.932Z,2.50
2023-02-24T08:25:18.495Z,1.75
2023-02-24T08:28:06.345Z,2.25
2023-02-24T08:30:38.925Z,2.05
2023-02-24T08:33:11.927Z,2.70
2023-02-24T08:35:44.461Z,2.67
2023-02-24T08:38:15.843Z,2.00
2023-02-24T08:40:52.025Z,4.13
2023-02-24T08:43:30.963Z,3.40
2023-02-24T08:46:21.303Z,2.15
2023-02-24T08:48:57.509Z,2.65
2023-02-24T08:51:28.811Z,2.25
2023-02-24T08:53:58.824Z,2.42
2023-02-24T08:56:34.610Z,2.53
2023-02-24T08:59:06.893Z,2.35
2023-02-24T09:04:13.376Z,1.77
2023-02-24T09:06:45.293Z,2.95
2023-02-24T09:09:18.820Z,2.55
2023-02-24T09:11:55.993Z,2.42
2023-02-24T09:14:28.901Z,3.13
2023-02-24T09:17:06.296Z,2.72
2023-02-24T09:22:31.419Z,3.05
2023-02-24T09:25:18.722Z,1.45
2023-02-24T09:27:52.522Z,2.78
2023-02-24T09:30:37.175Z,3.13
2023-02-24T09:33:09.023Z,2.70
2023-02-24T09:35:37.038Z,2.63
2023-02-24T09:38:07.667Z,2.83
2023-02-24T09:40:40.137Z,2.45
2023-02-24T09:43:17.626Z,2.47
2023-02-24T09:46:00.900Z,3.33
2023-02-24T09:48:43.696Z,3.33
2023-02-24T09:51:21.722Z,2.75
2023-02-24T09:53:53.781Z,2.28
2023-02-24T09:56:37.045Z,3.65
2023-02-24T09:59:27.316Z,3.22
2023-02-24T10:02:15.622Z,2.55
2023-02-24T10:05:07.137Z,4.13
2023-02-24T10:07:39.634Z,3.33
2023-02-24T10:10:19.809Z,3.72
2023-02-24T10:12:52.714Z,4.03
2023-02-24T10:15:47.396Z,3.58
2023-02-24T10:18:27.306Z,3.40
2023-02-24T10:21:20.085Z,3.83
2023-02-24T10:24:06.086Z,3.35
2023-02-24T10:27:00.064Z,2.60
2023-02-24T10:29:43.227Z,4.03
2023-02-24T10:32:47.115Z,3.70
2023-02-24T10:35:17.067Z,2.55
2023-02-24T10:37:44.583Z,3.30
2023-02-24T10:40:17.458Z,3.40
2023-02-24T10:42:48.880Z,3.78
2023-02-24T10:45:26.889Z,3.33
2023-02-24T10:47:59.389Z,3.50
2023-02-24T10:50:32.752Z,3.28
2023-02-24T10:53:26.731Z,3.15
2023-02-24T10:56:15.262Z,3.47
2023-02-24T10:58:52.651Z,2.60
2023-02-24T11:01:55.664Z,3.95
2023-02-24T11:04:32.954Z,3.58
2023-02-24T11:07:12.018Z,3.10
2023-02-24T11:09:52.665Z,2.80
2023-02-24T11:12:44.138Z,3.70
2023-02-24T11:15:40.620Z,3.05
2023-02-24T11:18:21.042Z,2.78
2023-02-24T11:20:52.441Z,3.10
2023-02-24T11:23:27.956Z,3.37
2023-02-24T11:26:00.814Z,2.72
2023-02-24T11:28:43.368Z,3.22
2023-02-24T11:31:34.926Z,2.97
2023-02-24T11:34:24.869Z,3.17
2023-02-24T11:37:16.259Z,3.50
2023-02-24T11:39:50.353Z,3.10
2023-02-24T11:42:26.435Z,4.18
2023-02-24T11:45:16.073Z,4.50
2023-02-24T11:47:48.779Z,3.38
2023-02-24T11:50:15.705Z,3.90
2023-02-24T11:52:46.897Z,3.30
2023-02-24T11:55:42.996Z,4.05
2023-02-24T11:58:28.096Z,3.10
2023-02-24T12:01:31.102Z,4.30
2023-02-24T12:04:30.358Z,4.05
2023-02-24T12:07:30.967Z,3.75
2023-02-24T12:10:16.013Z,4.45
2023-02-24T12:12:52.771Z,5.05
2023-02-24T12:15:28.469Z,4.45
2023-02-24T12:18:34.606Z,4.53
2023-02-24T12:21:09.111Z,4.80
2023-02-24T12:23:39.680Z,3.88
2023-02-24T12:26:28.751Z,4.20
2023-02-24T12:29:18.889Z,3.92
2023-02-24T12:32:30.712Z,3.72
2023-02-24T12:35:57.594Z,4.82
2023-02-24T12:38:44.129Z,3.78
2023-02-24T12:41:34.209Z,5.05
2023-02-24T12:44:01.738Z,3.78
2023-02-24T12:46:35.800Z,3.97
2023-02-24T12:49:10.430Z,3.88
2023-02-24T12:52:03.536Z,4.15
2023-02-24T12:54:36.700Z,3.75
2023-02-24T12:57:28.266Z,4.07
2023-02-24T12:59:58.056Z,2.77
2023-02-24T13:02:36.519Z,3.38
2023-02-24T13:05:06.436Z,4.53
2023-02-24T13:07:39.909Z,3.67
2023-02-24T13:10:22.052Z,4.40
2023-02-24T13:13:10.421Z,3.97
2023-02-24T13:15:37.321Z,3.95
2023-02-24T13:18:04.399Z,3.78
2023-02-24T13:20:38.016Z,4.18
2023-02-24T13:23:21.082Z,4.05
2023-02-24T13:25:53.611Z,3.85
2023-02-24T13:28:35.944Z,3.42
2023-02-24T13:33:32.678Z,4.70
2023-02-24T13:36:26.064Z,3.75
2023-02-24T13:39:07.425Z,4.95
2023-02-24T13:41:40.974Z,4.00
2023-02-24T13:44:27.451Z,4.07
2023-02-24T13:47:12.934Z,4.55
2023-02-24T13:50:02.808Z,2.08
2023-02-24T13:52:48.322Z,2.05
2023-02-24T13:55:53.535Z,1.70
2023-02-24T13:58:32.063Z,1.40
2023-02-24T14:01:14.671Z,1.55
2023-02-24T14:03:44.566Z,2.00
2023-02-24T14:06:23.253Z,2.05
2023-02-24T14:08:54.311Z,2.05
2023-02-24T14:11:26.834Z,1.77
2023-02-24T14:13:56.361Z,2.15
2023-02-24T14:16:35.814Z,2.63
2023-02-24T14:19:03.616Z,2.25
2023-02-24T14:21:32.916Z,2.53
2023-02-24T14:24:03.005Z,2.33
2023-02-24T14:26:36.443Z,2.63
2023-02-24T14:29:03.778Z,2.47
2023-02-24T14:31:31.233Z,2.95
2023-02-24T14:34:01.619Z,2.67
2023-02-24T14:36:33.174Z,2.80
2023-02-24T14:39:17.794Z,2.58
2023-02-24T14:41:46.273Z,2.92
2023-02-24T14:44:23.611Z,2.42
2023-02-24T14:46:53.295Z,2.25
2023-02-24T14:49:25.556Z,2.25
2023-02-24T14:52:05.083Z,2.50
2023-02-24T14:54:48.968Z,2.25
2023-02-24T14:57:24.805Z,1.45
2023-02-24T14:59:57.581Z,2.28
2023-02-24T15:02:32.837Z,2.03
2023-02-24T15:05:00.360Z,2.38
2023-02-24T15:07:32.043Z,1.98
2023-02-24T15:10:00.808Z,2.03
2023-02-24T15:12:34.583Z,2.58
2023-02-24T15:15:23.442Z,1.95
2023-02-24T15:17:56.732Z,2.00
2023-02-24T15:20:37.684Z,1.10
2023-02-24T15:23:05.419Z,1.70
2023-02-24T15:25:44.697Z,0.85
2023-02-24T15:28:27.040Z,1.17
2023-02-24T15:31:01.002Z,2.17
2023-02-24T15:33:34.137Z,1.17
2023-02-24T15:36:05.369Z,1.25
2023-02-24T15:38:38.314Z,1.38
2023-02-24T15:41:07.925Z,1.25
2023-02-24T15:43:37.301Z,1.67
2023-02-24T15:46:33.209Z,1.27
2023-02-24T15:49:04.552Z,1.63
2023-02-24T15:51:39.922Z,1.57
2023-02-24T15:54:11.000Z,1.30
2023-02-24T15:56:37.875Z,1.30
2023-02-24T15:59:06.017Z,0.73
2023-02-24T16:01:33.617Z,0.90
2023-02-24T16:04:01.548Z,1.02
2023-02-24T16:06:28.969Z,1.35
2023-02-24T16:08:57.484Z,1.20
2023-02-24T16:11:28.790Z,1.40
2023-02-24T16:13:58.188Z,1.08
2023-02-24T16:16:26.616Z,1.35
2023-02-24T16:18:54.051Z,1.27
2023-02-24T16:21:21.147Z,1.95
2023-02-24T16:23:48.646Z,7.40
2023-02-24T16:26:20.867Z,2.40
2023-02-24T16:28:55.912Z,2.13
2023-02-24T16:31:24.679Z,1.77
2023-02-24T16:33:55.352Z,2.28
2023-02-24T16:36:25.258Z,1.27
2023-02-24T16:38:52.522Z,1.65
2023-02-24T16:41:19.666Z,2.08
2023-02-24T16:43:46.621Z,1.90
2023-02-24T16:46:16.787Z,1.67
2023-02-24T16:48:46.817Z,1.20
2023-02-24T16:51:14.776Z,1.30
2023-02-24T16:53:41.692Z,1.75
2023-02-24T16:56:09.371Z,1.73
2023-02-24T16:58:36.316Z,0.90
2023-02-24T17:01:05.274Z,1.73
2023-02-24T17:03:37.419Z,1.60
2023-02-24T17:06:04.438Z,1.92
2023-02-24T17:08:31.765Z,1.83
2023-02-24T17:10:58.725Z,1.60
2023-02-24T17:13:25.627Z,2.95
2023-02-24T17:15:55.372Z,2.00
2023-02-24T17:18:23.534Z,1.98
2023-02-24T17:20:50.479Z,2.25
2023-02-24T17:23:17.395Z,1.98
2023-02-24T17:25:44.959Z,2.92
2023-02-24T17:28:11.893Z,1.63
2023-02-24T17:30:39.611Z,1.50
2023-02-24T17:33:07.340Z,3.13
2023-02-24T17:35:34.295Z,2.53
2023-02-24T17:38:01.253Z,1.75
2023-02-24T17:40:28.137Z,2.38
2023-02-24T17:42:55.100Z,2.17
2023-02-24T17:45:22.077Z,2.90
2023-02-24T17:47:48.911Z,2.28
2023-02-24T17:50:16.664Z,2.72
2023-02-24T17:52:43.714Z,2.28
2023-02-24T17:55:10.903Z,2.60
2023-02-24T17:57:39.599Z,2.53
2023-02-24T18:00:08.189Z,2.60
2023-02-24T18:02:41.095Z,2.17
2023-02-24T18:05:09.095Z,2.47
2023-02-24T18:07:36.570Z,1.70
2023-02-24T18:10:03.846Z,1.40
2023-02-24T18:12:31.345Z,2.15
2023-02-24T18:15:07.698Z,1.67
2023-02-24T18:17:35.742Z,1.88
2023-02-24T18:20:03.465Z,1.50
2023-02-24T18:22:30.335Z,2.15
2023-02-24T18:24:57.505Z,1.90
2023-02-24T18:27:24.385Z,2.10
2023-02-24T18:29:51.228Z,3.38
2023-02-24T18:32:18.231Z,1.95
2023-02-24T18:34:45.256Z,2.53
2023-02-24T18:37:12.314Z,2.50
2023-02-24T18:39:39.164Z,2.38
2023-02-24T18:42:06.133Z,2.90
2023-02-24T18:44:32.966Z,3.25
2023-02-24T18:46:59.913Z,2.97
2023-02-24T18:49:26.926Z,2.97
2023-02-24T18:51:53.855Z,3.20
2023-02-24T18:54:20.806Z,4.07
2023-02-24T18:56:47.780Z,3.83
2023-02-24T18:59:14.635Z,4.15
2023-02-24T19:01:41.499Z,3.13
2023-02-24T19:04:08.582Z,3.45
2023-02-24T19:06:36.372Z,3.05
2023-02-24T19:09:12.094Z,4.13
2023-02-24T19:11:40.865Z,3.90
2023-02-24T19:14:09.430Z,4.88
2023-02-24T19:16:37.897Z,3.13
2023-02-24T19:19:05.230Z,4.15
2023-02-24T19:21:33.524Z,4.13
2023-02-24T19:24:03.503Z,4.50
2023-02-24T19:26:30.811Z,3.92
2023-02-24T19:28:58.812Z,4.10
2023-02-24T19:31:30.647Z,3.60
2023-02-24T19:34:00.762Z,4.00
2023-02-24T19:36:29.112Z,3.85
2023-02-24T19:38:56.229Z,4.75
2023-02-24T19:41:23.456Z,3.50
2023-02-24T19:43:51.478Z,4.45
2023-02-24T19:46:18.893Z,3.33
2023-02-24T19:48:46.037Z,3.33
2023-02-24T19:51:22.455Z,4.03
2023-02-24T19:53:53.446Z,3.67
2023-02-24T19:56:28.978Z,3.15
2023-02-24T19:58:57.317Z,3.78
2023-02-24T20:01:25.512Z,2.85
2023-02-24T20:03:59.531Z,3.25
2023-02-24T20:06:36.025Z,3.15
2023-02-24T20:09:06.586Z,2.92
2023-02-24T20:11:38.773Z,2.65
2023-02-24T20:16:34.690Z,2.83
2023-02-24T20:19:02.688Z,3.35
2023-02-24T20:21:31.045Z,3.30
2023-02-24T20:24:02.562Z,2.75
2023-02-24T20:26:30.348Z,4.00
2023-02-24T20:28:58.687Z,3.10
2023-02-24T20:31:25.839Z,3.10
2023-02-24T20:33:53.140Z,1.95
2023-02-24T20:36:26.869Z,3.50
2023-02-24T20:38:59.202Z,3.60
2023-02-24T20:41:27.168Z,2.75
2023-02-24T20:43:55.172Z,2.72
2023-02-24T20:46:28.728Z,3.30
2023-02-24T20:49:01.224Z,2.75
2023-02-24T20:51:30.121Z,2.85
2023-02-24T20:53:58.640Z,2.97
2023-02-24T20:56:32.899Z,2.85
2023-02-24T20:59:02.547Z,3.17
2023-02-24T21:01:31.113Z,3.60
2023-02-24T21:03:58.538Z,2.38
2023-02-24T21:06:26.053Z,3.17
2023-02-24T21:08:53.469Z,2.25
2023-02-24T21:11:21.570Z,2.38
2023-02-24T21:13:52.291Z,2.33
2023-02-24T21:16:20.538Z,2.20
2023-02-24T21:18:49.562Z,2.60
2023-02-24T21:21:17.178Z,2.03
2023-02-24T21:23:44.110Z,2.88
2023-02-24T21:26:12.086Z,2.90
2023-02-24T21:28:40.354Z,2.53
2023-02-24T21:31:13.179Z,2.90
2023-02-24T21:33:40.632Z,2.58
2023-02-24T21:36:11.281Z,1.95
2023-02-24T21:38:38.368Z,1.88
2023-02-24T21:41:08.183Z,2.30
2023-02-24T21:43:35.406Z,1.90
2023-02-24T21:46:08.999Z,2.30
2023-02-24T21:48:37.047Z,2.05
2023-02-24T21:51:06.451Z,1.73
2023-02-24T21:53:35.669Z,1.83
2023-02-24T21:56:06.534Z,1.52
2023-02-24T21:58:33.599Z,1.25
2023-02-24T22:01:00.410Z,1.52
2023-02-24T22:03:28.096Z,1.15
2023-02-24T22:05:55.113Z,3.22
2023-02-24T22:08:22.127Z,2.28
2023-02-24T22:10:58.712Z,2.20
2023-02-24T22:13:26.220Z,1.83
2023-02-24T22:15:53.342Z,2.95
2023-02-24T22:18:21.257Z,1.73
2023-02-24T22:20:48.202Z,2.33
2023-02-24T22:23:15.156Z,1.55
2023-02-24T22:25:42.011Z,2.65
2023-02-24T22:28:08.907Z,3.28
2023-02-24T22:30:35.885Z,3.25
2023-02-24T22:33:02.803Z,2.42
2023-02-24T22:35:29.686Z,4.05
2023-02-24T22:37:56.582Z,2.80
2023-02-24T22:40:23.458Z,2.28
2023-02-24T22:42:50.291Z,2.60
2023-02-24T22:45:17.156Z,2.70
2023-02-24T22:47:44.064Z,3.58
2023-02-24T22:50:11.414Z,1.85
2023-02-24T22:52:38.403Z,2.70
2023-02-24T22:55:05.573Z,2.75
2023-02-24T22:57:34.041Z,2.28
2023-02-24T23:00:00.936Z,2.33
2023-02-24T23:02:27.858Z,3.28
2023-02-24T23:04:54.711Z,2.22
2023-02-24T23:07:21.624Z,2.15
2023-02-24T23:09:52.952Z,2.72
2023-02-24T23:12:22.128Z,2.13
2023-02-24T23:14:49.213Z,2.17
2023-02-24T23:17:16.058Z,2.40
2023-02-24T23:19:42.889Z,2.47
2023-02-24T23:22:09.765Z,2.80
2023-02-24T23:24:36.594Z,1.92
2023-02-24T23:27:03.760Z,2.30
2023-02-24T23:29:30.813Z,2.65
2023-02-24T23:31:58.362Z,2.75
2023-02-24T23:34:26.518Z,2.88
2023-02-24T23:36:53.411Z,3.10
2023-02-24T23:39:23.624Z,2.92
2023-02-24T23:41:56.699Z,3.65
2023-02-24T23:44:23.933Z,2.60
2023-02-24T23:46:50.863Z,5.57
2023-02-24T23:49:17.708Z,5.82
2023-02-24T23:51:48.974Z,5.68
2023-02-24T23:54:18.111Z,2.90
2023-02-24T23:56:46.434Z,3.10
2023-02-24T23:59:13.696Z,3.42
